sensor_id;sensor_type;location;lat;lon;timestamp;P1;durP1;ratioP1;P2;durP2;ratioP2
79373;SDS011;68844;53.128;17.958;2023-09-19T00:00:20;9.70;;;8.00;;
79373;SDS011;68844;53.128;17.958;2023-09-19T00:03:08;9.40;;;8.60;;
79373;SDS011;68844;53.128;17.958;2023-09-19T00:05:36;10.10;;;8.90;;
79373;SDS011;68844;53.128;17.958;2023-09-19T00:08:10;10.10;;;9.10;;
79373;SDS011;68844;53.128;17.958;2023-09-19T00:10:39;11.10;;;10.00;;
79373;SDS011;68844;53.128;17.958;2023-09-19T00:15:40;8.80;;;7.00;;
79373;SDS011;68844;53.128;17.958;2023-09-19T00:18:08;10.70;;;9.70;;
79373;SDS011;68844;53.128;17.958;2023-09-19T00:20:35;10.30;;;9.30;;
79373;SDS011;68844;53.128;17.958;2023-09-19T00:25:30;11.30;;;8.50;;
79373;SDS011;68844;53.128;17.958;2023-09-19T00:27:58;12.70;;;8.30;;
79373;SDS011;68844;53.128;17.958;2023-09-19T00:30:25;8.10;;;7.30;;
79373;SDS011;68844;53.128;17.958;2023-09-19T00:32:52;10.90;;;7.90;;
79373;SDS011;68844;53.128;17.958;2023-09-19T00:35:21;9.20;;;8.10;;
79373;SDS011;68844;53.128;17.958;2023-09-19T00:37:51;6.90;;;5.80;;
79373;SDS011;68844;53.128;17.958;2023-09-19T00:40:19;7.50;;;5.20;;
79373;SDS011;68844;53.128;17.958;2023-09-19T00:42:48;7.30;;;5.90;;
79373;SDS011;68844;53.128;17.958;2023-09-19T00:47:44;5.30;;;4.50;;
79373;SDS011;68844;53.128;17.958;2023-09-19T00:50:16;7.60;;;4.60;;
79373;SDS011;68844;53.128;17.958;2023-09-19T00:52:49;5.10;;;4.30;;
79373;SDS011;68844;53.128;17.958;2023-09-19T00:55:18;5.60;;;4.10;;
79373;SDS011;68844;53.128;17.958;2023-09-19T00:57:46;8.30;;;4.20;;
79373;SDS011;68844;53.128;17.958;2023-09-19T01:00:16;4.90;;;4.00;;
79373;SDS011;68844;53.128;17.958;2023-09-19T01:02:46;4.60;;;4.10;;
79373;SDS011;68844;53.128;17.958;2023-09-19T01:07:40;3.40;;;3.00;;
79373;SDS011;68844;53.128;17.958;2023-09-19T01:10:08;5.10;;;3.40;;
79373;SDS011;68844;53.128;17.958;2023-09-19T01:15:40;4.00;;;3.40;;
79373;SDS011;68844;53.128;17.958;2023-09-19T01:18:24;6.40;;;3.60;;
79373;SDS011;68844;53.128;17.958;2023-09-19T01:26:43;5.00;;;2.80;;
79373;SDS011;68844;53.128;17.958;2023-09-19T01:32:02;3.70;;;2.60;;
79373;SDS011;68844;53.128;17.958;2023-09-19T01:37:30;4.20;;;2.40;;
79373;SDS011;68844;53.128;17.958;2023-09-19T01:39:59;6.30;;;3.00;;
79373;SDS011;68844;53.128;17.958;2023-09-19T01:42:43;2.60;;;2.20;;
79373;SDS011;68844;53.128;17.958;2023-09-19T01:45:19;3.60;;;2.60;;
79373;SDS011;68844;53.128;17.958;2023-09-19T01:47:58;5.40;;;3.20;;
79373;SDS011;68844;53.128;17.958;2023-09-19T01:53:24;3.90;;;2.10;;
79373;SDS011;68844;53.128;17.958;2023-09-19T01:55:54;3.50;;;2.30;;
79373;SDS011;68844;53.128;17.958;2023-09-19T01:58:30;4.90;;;2.80;;
79373;SDS011;68844;53.128;17.958;2023-09-19T02:01:01;4.90;;;2.80;;
79373;SDS011;68844;53.128;17.958;2023-09-19T02:03:31;4.50;;;2.80;;
79373;SDS011;68844;53.128;17.958;2023-09-19T02:05:59;2.90;;;2.10;;
79373;SDS011;68844;53.128;17.958;2023-09-19T02:08:27;3.40;;;2.20;;
79373;SDS011;68844;53.128;17.958;2023-09-19T02:10:53;4.00;;;3.00;;
79373;SDS011;68844;53.128;17.958;2023-09-19T02:13:20;4.10;;;2.60;;
79373;SDS011;68844;53.128;17.958;2023-09-19T02:15:50;4.60;;;2.70;;
79373;SDS011;68844;53.128;17.958;2023-09-19T02:18:17;3.50;;;2.10;;
79373;SDS011;68844;53.128;17.958;2023-09-19T02:20:44;4.20;;;2.50;;
79373;SDS011;68844;53.128;17.958;2023-09-19T02:23:12;3.10;;;2.20;;
79373;SDS011;68844;53.128;17.958;2023-09-19T02:25:39;3.60;;;2.70;;
79373;SDS011;68844;53.128;17.958;2023-09-19T02:28:07;3.00;;;2.20;;
79373;SDS011;68844;53.128;17.958;2023-09-19T02:30:35;5.10;;;2.80;;
79373;SDS011;68844;53.128;17.958;2023-09-19T02:33:02;4.30;;;2.90;;
79373;SDS011;68844;53.128;17.958;2023-09-19T02:35:30;3.20;;;2.70;;
79373;SDS011;68844;53.128;17.958;2023-09-19T02:38:01;5.60;;;3.10;;
79373;SDS011;68844;53.128;17.958;2023-09-19T02:40:32;3.40;;;2.80;;
79373;SDS011;68844;53.128;17.958;2023-09-19T02:43:01;5.40;;;3.80;;
79373;SDS011;68844;53.128;17.958;2023-09-19T02:45:28;4.50;;;3.60;;
79373;SDS011;68844;53.128;17.958;2023-09-19T02:47:57;5.50;;;4.20;;
79373;SDS011;68844;53.128;17.958;2023-09-19T02:50:24;10.00;;;4.00;;
79373;SDS011;68844;53.128;17.958;2023-09-19T02:52:51;7.50;;;3.70;;
79373;SDS011;68844;53.128;17.958;2023-09-19T02:55:18;7.70;;;4.20;;
79373;SDS011;68844;53.128;17.958;2023-09-19T02:57:54;5.40;;;3.40;;
79373;SDS011;68844;53.128;17.958;2023-09-19T03:00:21;7.20;;;3.80;;
79373;SDS011;68844;53.128;17.958;2023-09-19T03:05:17;7.60;;;3.00;;
79373;SDS011;68844;53.128;17.958;2023-09-19T03:07:44;5.00;;;3.40;;
79373;SDS011;68844;53.128;17.958;2023-09-19T03:10:13;6.30;;;3.40;;
79373;SDS011;68844;53.128;17.958;2023-09-19T03:12:41;5.40;;;3.10;;
79373;SDS011;68844;53.128;17.958;2023-09-19T03:15:08;4.50;;;2.60;;
79373;SDS011;68844;53.128;17.958;2023-09-19T03:17:36;4.60;;;3.00;;
79373;SDS011;68844;53.128;17.958;2023-09-19T03:20:03;5.30;;;2.90;;
79373;SDS011;68844;53.128;17.958;2023-09-19T03:22:31;3.20;;;2.60;;
79373;SDS011;68844;53.128;17.958;2023-09-19T03:24:59;5.50;;;2.30;;
79373;SDS011;68844;53.128;17.958;2023-09-19T03:27:27;3.40;;;2.40;;
79373;SDS011;68844;53.128;17.958;2023-09-19T03:29:54;3.10;;;2.10;;
79373;SDS011;68844;53.128;17.958;2023-09-19T03:32:21;4.10;;;2.10;;
79373;SDS011;68844;53.128;17.958;2023-09-19T03:34:48;3.80;;;2.20;;
79373;SDS011;68844;53.128;17.958;2023-09-19T03:37:15;3.90;;;2.20;;
79373;SDS011;68844;53.128;17.958;2023-09-19T03:39:42;5.70;;;2.10;;
79373;SDS011;68844;53.128;17.958;2023-09-19T03:42:08;3.60;;;2.10;;
79373;SDS011;68844;53.128;17.958;2023-09-19T03:44:36;4.20;;;2.60;;
79373;SDS011;68844;53.128;17.958;2023-09-19T03:47:03;3.40;;;2.10;;
79373;SDS011;68844;53.128;17.958;2023-09-19T03:49:32;5.30;;;2.50;;
79373;SDS011;68844;53.128;17.958;2023-09-19T03:51:59;4.00;;;2.30;;
79373;SDS011;68844;53.128;17.958;2023-09-19T03:54:26;3.30;;;2.30;;
79373;SDS011;68844;53.128;17.958;2023-09-19T03:56:53;3.10;;;2.40;;
79373;SDS011;68844;53.128;17.958;2023-09-19T03:59:20;3.40;;;2.20;;
79373;SDS011;68844;53.128;17.958;2023-09-19T04:01:46;5.30;;;2.50;;
79373;SDS011;68844;53.128;17.958;2023-09-19T04:04:13;4.50;;;2.40;;
79373;SDS011;68844;53.128;17.958;2023-09-19T04:06:40;4.10;;;2.70;;
79373;SDS011;68844;53.128;17.958;2023-09-19T04:09:07;4.00;;;2.20;;
79373;SDS011;68844;53.128;17.958;2023-09-19T04:11:34;4.50;;;1.90;;
79373;SDS011;68844;53.128;17.958;2023-09-19T04:14:02;2.70;;;2.10;;
79373;SDS011;68844;53.128;17.958;2023-09-19T04:16:30;4.30;;;2.60;;
79373;SDS011;68844;53.128;17.958;2023-09-19T04:18:57;4.80;;;2.80;;
79373;SDS011;68844;53.128;17.958;2023-09-19T04:21:23;5.20;;;2.70;;
79373;SDS011;68844;53.128;17.958;2023-09-19T04:23:50;3.40;;;1.70;;
79373;SDS011;68844;53.128;17.958;2023-09-19T04:26:17;4.10;;;2.50;;
79373;SDS011;68844;53.128;17.958;2023-09-19T04:28:43;4.70;;;2.40;;
79373;SDS011;68844;53.128;17.958;2023-09-19T04:31:10;3.00;;;2.10;;
79373;SDS011;68844;53.128;17.958;2023-09-19T04:33:38;3.70;;;2.40;;
79373;SDS011;68844;53.128;17.958;2023-09-19T04:36:04;3.50;;;2.10;;
79373;SDS011;68844;53.128;17.958;2023-09-19T04:38:33;3.10;;;1.90;;
79373;SDS011;68844;53.128;17.958;2023-09-19T04:41:00;2.70;;;2.10;;
79373;SDS011;68844;53.128;17.958;2023-09-19T04:43:27;3.90;;;2.50;;
79373;SDS011;68844;53.128;17.958;2023-09-19T04:45:54;3.50;;;1.80;;
79373;SDS011;68844;53.128;17.958;2023-09-19T04:48:22;3.30;;;2.00;;
79373;SDS011;68844;53.128;17.958;2023-09-19T04:50:52;3.80;;;2.10;;
79373;SDS011;68844;53.128;17.958;2023-09-19T04:53:19;4.70;;;1.90;;
79373;SDS011;68844;53.128;17.958;2023-09-19T04:55:51;2.50;;;1.80;;
79373;SDS011;68844;53.128;17.958;2023-09-19T04:58:22;2.90;;;2.00;;
79373;SDS011;68844;53.128;17.958;2023-09-19T05:00:49;5.90;;;2.00;;
79373;SDS011;68844;53.128;17.958;2023-09-19T05:03:17;4.10;;;2.50;;
79373;SDS011;68844;53.128;17.958;2023-09-19T05:05:47;3.30;;;2.10;;
79373;SDS011;68844;53.128;17.958;2023-09-19T05:08:14;3.80;;;1.90;;
79373;SDS011;68844;53.128;17.958;2023-09-19T05:10:41;4.70;;;2.20;;
79373;SDS011;68844;53.128;17.958;2023-09-19T05:13:07;5.10;;;2.30;;
79373;SDS011;68844;53.128;17.958;2023-09-19T05:15:34;4.30;;;1.90;;
79373;SDS011;68844;53.128;17.958;2023-09-19T05:18:02;4.90;;;1.80;;
79373;SDS011;68844;53.128;17.958;2023-09-19T05:20:29;2.50;;;1.80;;
79373;SDS011;68844;53.128;17.958;2023-09-19T05:23:02;4.30;;;1.80;;
79373;SDS011;68844;53.128;17.958;2023-09-19T05:25:31;2.60;;;1.80;;
79373;SDS011;68844;53.128;17.958;2023-09-19T05:27:59;3.10;;;2.00;;
79373;SDS011;68844;53.128;17.958;2023-09-19T05:30:26;3.60;;;1.40;;
79373;SDS011;68844;53.128;17.958;2023-09-19T05:32:53;4.00;;;2.10;;
79373;SDS011;68844;53.128;17.958;2023-09-19T05:35:21;3.50;;;1.60;;
79373;SDS011;68844;53.128;17.958;2023-09-19T05:37:50;3.90;;;2.00;;
79373;SDS011;68844;53.128;17.958;2023-09-19T05:40:17;2.60;;;2.00;;
79373;SDS011;68844;53.128;17.958;2023-09-19T05:42:45;2.70;;;1.40;;
79373;SDS011;68844;53.128;17.958;2023-09-19T05:45:12;4.70;;;2.00;;
79373;SDS011;68844;53.128;17.958;2023-09-19T05:47:40;3.00;;;1.20;;
79373;SDS011;68844;53.128;17.958;2023-09-19T05:50:12;3.40;;;1.90;;
79373;SDS011;68844;53.128;17.958;2023-09-19T05:52:39;3.30;;;1.90;;
79373;SDS011;68844;53.128;17.958;2023-09-19T05:57:34;3.60;;;1.80;;
79373;SDS011;68844;53.128;17.958;2023-09-19T06:00:01;2.10;;;1.60;;
79373;SDS011;68844;53.128;17.958;2023-09-19T06:02:38;3.80;;;1.80;;
79373;SDS011;68844;53.128;17.958;2023-09-19T06:07:37;3.60;;;1.90;;
79373;SDS011;68844;53.128;17.958;2023-09-19T06:10:04;5.70;;;2.20;;
79373;SDS011;68844;53.128;17.958;2023-09-19T06:12:37;3.30;;;2.00;;
79373;SDS011;68844;53.128;17.958;2023-09-19T06:15:05;3.00;;;2.00;;
79373;SDS011;68844;53.128;17.958;2023-09-19T06:17:35;2.50;;;1.60;;
79373;SDS011;68844;53.128;17.958;2023-09-19T06:20:05;3.30;;;2.20;;
79373;SDS011;68844;53.128;17.958;2023-09-19T06:22:39;2.90;;;1.90;;
79373;SDS011;68844;53.128;17.958;2023-09-19T06:25:08;3.80;;;2.20;;
79373;SDS011;68844;53.128;17.958;2023-09-19T06:27:40;4.70;;;2.10;;
79373;SDS011;68844;53.128;17.958;2023-09-19T06:30:10;2.80;;;1.90;;
79373;SDS011;68844;53.128;17.958;2023-09-19T06:32:41;3.40;;;1.80;;
79373;SDS011;68844;53.128;17.958;2023-09-19T06:35:11;3.20;;;2.10;;
79373;SDS011;68844;53.128;17.958;2023-09-19T06:37:39;4.00;;;2.00;;
79373;SDS011;68844;53.128;17.958;2023-09-19T06:45:04;3.00;;;2.00;;
79373;SDS011;68844;53.128;17.958;2023-09-19T06:47:32;3.30;;;2.30;;
79373;SDS011;68844;53.128;17.958;2023-09-19T06:49:58;3.50;;;2.20;;
79373;SDS011;68844;53.128;17.958;2023-09-19T06:52:27;3.70;;;2.00;;
79373;SDS011;68844;53.128;17.958;2023-09-19T06:54:54;2.90;;;2.00;;
79373;SDS011;68844;53.128;17.958;2023-09-19T06:57:21;2.50;;;2.00;;
79373;SDS011;68844;53.128;17.958;2023-09-19T06:59:48;5.20;;;2.10;;
79373;SDS011;68844;53.128;17.958;2023-09-19T07:02:15;2.80;;;2.50;;
79373;SDS011;68844;53.128;17.958;2023-09-19T07:04:41;3.50;;;2.50;;
79373;SDS011;68844;53.128;17.958;2023-09-19T07:07:08;3.00;;;2.40;;
79373;SDS011;68844;53.128;17.958;2023-09-19T07:09:36;4.00;;;2.10;;
79373;SDS011;68844;53.128;17.958;2023-09-19T07:12:03;13.60;;;3.00;;
79373;SDS011;68844;53.128;17.958;2023-09-19T07:14:30;3.80;;;2.70;;
79373;SDS011;68844;53.128;17.958;2023-09-19T07:16:57;2.80;;;2.40;;
79373;SDS011;68844;53.128;17.958;2023-09-19T07:19:26;2.90;;;1.90;;
79373;SDS011;68844;53.128;17.958;2023-09-19T07:21:56;4.00;;;2.30;;
79373;SDS011;68844;53.128;17.958;2023-09-19T07:24:25;5.50;;;2.70;;
79373;SDS011;68844;53.128;17.958;2023-09-19T07:26:54;3.70;;;2.50;;
79373;SDS011;68844;53.128;17.958;2023-09-19T07:29:21;2.50;;;2.20;;
79373;SDS011;68844;53.128;17.958;2023-09-19T07:31:48;3.60;;;2.20;;
79373;SDS011;68844;53.128;17.958;2023-09-19T07:34:16;2.20;;;1.70;;
79373;SDS011;68844;53.128;17.958;2023-09-19T07:36:43;2.30;;;2.10;;
79373;SDS011;68844;53.128;17.958;2023-09-19T07:39:10;2.80;;;2.10;;
79373;SDS011;68844;53.128;17.958;2023-09-19T07:41:36;2.70;;;2.30;;
79373;SDS011;68844;53.128;17.958;2023-09-19T07:44:03;3.40;;;2.30;;
79373;SDS011;68844;53.128;17.958;2023-09-19T07:46:30;2.60;;;2.00;;
79373;SDS011;68844;53.128;17.958;2023-09-19T07:48:57;2.70;;;1.90;;
79373;SDS011;68844;53.128;17.958;2023-09-19T07:51:24;2.70;;;2.30;;
79373;SDS011;68844;53.128;17.958;2023-09-19T07:53:51;3.00;;;2.00;;
79373;SDS011;68844;53.128;17.958;2023-09-19T07:56:19;3.30;;;2.10;;
79373;SDS011;68844;53.128;17.958;2023-09-19T07:58:47;2.70;;;2.20;;
79373;SDS011;68844;53.128;17.958;2023-09-19T08:01:13;2.90;;;2.60;;
79373;SDS011;68844;53.128;17.958;2023-09-19T08:06:09;2.90;;;1.80;;
79373;SDS011;68844;53.128;17.958;2023-09-19T08:08:36;3.20;;;2.00;;
79373;SDS011;68844;53.128;17.958;2023-09-19T08:11:04;2.90;;;2.10;;
79373;SDS011;68844;53.128;17.958;2023-09-19T08:13:39;3.20;;;2.20;;
79373;SDS011;68844;53.128;17.958;2023-09-19T08:16:15;4.30;;;2.00;;
79373;SDS011;68844;53.128;17.958;2023-09-19T08:18:49;2.40;;;1.90;;
79373;SDS011;68844;53.128;17.958;2023-09-19T08:21:19;3.50;;;2.30;;
79373;SDS011;68844;53.128;17.958;2023-09-19T08:23:46;3.10;;;2.10;;
79373;SDS011;68844;53.128;17.958;2023-09-19T08:26:12;2.40;;;1.80;;
79373;SDS011;68844;53.128;17.958;2023-09-19T08:28:39;2.50;;;1.60;;
79373;SDS011;68844;53.128;17.958;2023-09-19T08:31:07;6.90;;;2.00;;
79373;SDS011;68844;53.128;17.958;2023-09-19T08:33:35;2.60;;;1.70;;
79373;SDS011;68844;53.128;17.958;2023-09-19T08:38:34;2.40;;;2.00;;
79373;SDS011;68844;53.128;17.958;2023-09-19T08:41:05;2.60;;;1.80;;
79373;SDS011;68844;53.128;17.958;2023-09-19T08:43:34;2.80;;;1.80;;
79373;SDS011;68844;53.128;17.958;2023-09-19T08:46:10;1.90;;;1.40;;
79373;SDS011;68844;53.128;17.958;2023-09-19T08:48:45;4.40;;;1.40;;
79373;SDS011;68844;53.128;17.958;2023-09-19T08:51:26;2.40;;;1.50;;
79373;SDS011;68844;53.128;17.958;2023-09-19T08:56:33;1.50;;;1.10;;
79373;SDS011;68844;53.128;17.958;2023-09-19T08:59:02;2.00;;;1.10;;
79373;SDS011;68844;53.128;17.958;2023-09-19T09:01:31;2.60;;;1.50;;
79373;SDS011;68844;53.128;17.958;2023-09-19T09:03:58;2.90;;;1.50;;
79373;SDS011;68844;53.128;17.958;2023-09-19T09:06:25;2.00;;;0.90;;
79373;SDS011;68844;53.128;17.958;2023-09-19T09:08:54;2.60;;;1.20;;
79373;SDS011;68844;53.128;17.958;2023-09-19T09:11:21;1.20;;;0.90;;
79373;SDS011;68844;53.128;17.958;2023-09-19T09:13:51;2.50;;;0.80;;
79373;SDS011;68844;53.128;17.958;2023-09-19T09:16:17;2.60;;;1.00;;
79373;SDS011;68844;53.128;17.958;2023-09-19T09:18:45;2.10;;;0.90;;
79373;SDS011;68844;53.128;17.958;2023-09-19T09:21:13;2.00;;;0.80;;
79373;SDS011;68844;53.128;17.958;2023-09-19T09:23:41;1.20;;;0.80;;
79373;SDS011;68844;53.128;17.958;2023-09-19T09:26:07;1.10;;;0.70;;
79373;SDS011;68844;53.128;17.958;2023-09-19T09:28:35;1.80;;;0.80;;
79373;SDS011;68844;53.128;17.958;2023-09-19T09:31:23;2.40;;;0.80;;
79373;SDS011;68844;53.128;17.958;2023-09-19T09:33:55;2.50;;;1.00;;
79373;SDS011;68844;53.128;17.958;2023-09-19T09:36:35;4.10;;;1.10;;
79373;SDS011;68844;53.128;17.958;2023-09-19T09:39:03;2.60;;;0.90;;
79373;SDS011;68844;53.128;17.958;2023-09-19T09:41:42;2.30;;;1.00;;
79373;SDS011;68844;53.128;17.958;2023-09-19T09:44:13;2.90;;;0.80;;
79373;SDS011;68844;53.128;17.958;2023-09-19T09:46:42;1.70;;;0.80;;
79373;SDS011;68844;53.128;17.958;2023-09-19T09:49:22;1.90;;;0.80;;
79373;SDS011;68844;53.128;17.958;2023-09-19T09:52:00;2.90;;;1.00;;
79373;SDS011;68844;53.128;17.958;2023-09-19T09:54:31;2.10;;;0.70;;
79373;SDS011;68844;53.128;17.958;2023-09-19T09:57:08;1.40;;;0.80;;
79373;SDS011;68844;53.128;17.958;2023-09-19T09:59:58;2.10;;;0.50;;
79373;SDS011;68844;53.128;17.958;2023-09-19T10:02:42;2.30;;;0.80;;
79373;SDS011;68844;53.128;17.958;2023-09-19T10:05:13;1.80;;;0.70;;
79373;SDS011;68844;53.128;17.958;2023-09-19T10:07:46;1.20;;;0.70;;
79373;SDS011;68844;53.128;17.958;2023-09-19T10:13:03;4.40;;;1.00;;
79373;SDS011;68844;53.128;17.958;2023-09-19T10:15:34;0.90;;;0.60;;
79373;SDS011;68844;53.128;17.958;2023-09-19T10:18:05;2.00;;;0.70;;
79373;SDS011;68844;53.128;17.958;2023-09-19T10:20:34;1.80;;;0.50;;
79373;SDS011;68844;53.128;17.958;2023-09-19T10:23:08;1.40;;;0.60;;
79373;SDS011;68844;53.128;17.958;2023-09-19T10:25:41;1.80;;;0.60;;
79373;SDS011;68844;53.128;17.958;2023-09-19T10:28:10;1.30;;;0.50;;
79373;SDS011;68844;53.128;17.958;2023-09-19T10:30:46;2.20;;;0.50;;
79373;SDS011;68844;53.128;17.958;2023-09-19T10:33:16;2.10;;;0.80;;
79373;SDS011;68844;53.128;17.958;2023-09-19T10:35:48;1.90;;;0.70;;
79373;SDS011;68844;53.128;17.958;2023-09-19T10:38:17;5.60;;;0.80;;
79373;SDS011;68844;53.128;17.958;2023-09-19T10:40:51;2.10;;;1.00;;
79373;SDS011;68844;53.128;17.958;2023-09-19T10:43:20;4.20;;;1.10;;
79373;SDS011;68844;53.128;17.958;2023-09-19T10:45:49;2.40;;;0.60;;
79373;SDS011;68844;53.128;17.958;2023-09-19T10:48:19;2.10;;;0.80;;
79373;SDS011;68844;53.128;17.958;2023-09-19T10:50:48;1.70;;;0.40;;
79373;SDS011;68844;53.128;17.958;2023-09-19T10:53:18;1.20;;;0.70;;
79373;SDS011;68844;53.128;17.958;2023-09-19T10:55:48;3.20;;;0.90;;
79373;SDS011;68844;53.128;17.958;2023-09-19T10:58:27;3.10;;;0.80;;
79373;SDS011;68844;53.128;17.958;2023-09-19T11:03:38;1.80;;;0.60;;
79373;SDS011;68844;53.128;17.958;2023-09-19T11:08:54;1.50;;;0.60;;
79373;SDS011;68844;53.128;17.958;2023-09-19T11:11:42;2.40;;;0.70;;
79373;SDS011;68844;53.128;17.958;2023-09-19T11:30:32;2.90;;;0.70;;
79373;SDS011;68844;53.128;17.958;2023-09-19T11:33:19;3.00;;;0.70;;
79373;SDS011;68844;53.128;17.958;2023-09-19T11:36:12;1.00;;;0.60;;
79373;SDS011;68844;53.128;17.958;2023-09-19T11:46:30;1.40;;;0.60;;
79373;SDS011;68844;53.128;17.958;2023-09-19T11:49:05;1.10;;;0.50;;
79373;SDS011;68844;53.128;17.958;2023-09-19T11:51:39;2.10;;;0.60;;
79373;SDS011;68844;53.128;17.958;2023-09-19T11:54:12;2.50;;;0.60;;
79373;SDS011;68844;53.128;17.958;2023-09-19T11:56:44;1.70;;;0.60;;
79373;SDS011;68844;53.128;17.958;2023-09-19T11:59:13;1.30;;;0.40;;
79373;SDS011;68844;53.128;17.958;2023-09-19T12:01:51;1.60;;;0.60;;
79373;SDS011;68844;53.128;17.958;2023-09-19T12:04:36;1.90;;;0.60;;
79373;SDS011;68844;53.128;17.958;2023-09-19T12:07:08;2.60;;;0.80;;
79373;SDS011;68844;53.128;17.958;2023-09-19T12:09:42;2.30;;;0.70;;
79373;SDS011;68844;53.128;17.958;2023-09-19T12:12:10;1.90;;;0.40;;
79373;SDS011;68844;53.128;17.958;2023-09-19T12:14:47;1.80;;;0.50;;
79373;SDS011;68844;53.128;17.958;2023-09-19T12:17:14;2.60;;;0.90;;
79373;SDS011;68844;53.128;17.958;2023-09-19T12:19:49;1.30;;;0.60;;
79373;SDS011;68844;53.128;17.958;2023-09-19T12:22:20;1.90;;;0.60;;
79373;SDS011;68844;53.128;17.958;2023-09-19T12:24:51;1.40;;;0.60;;
79373;SDS011;68844;53.128;17.958;2023-09-19T12:27:20;2.50;;;0.70;;
79373;SDS011;68844;53.128;17.958;2023-09-19T12:29:48;1.30;;;0.50;;
79373;SDS011;68844;53.128;17.958;2023-09-19T12:32:16;1.80;;;0.70;;
79373;SDS011;68844;53.128;17.958;2023-09-19T12:34:49;1.90;;;0.50;;
79373;SDS011;68844;53.128;17.958;2023-09-19T12:37:18;1.30;;;0.40;;
79373;SDS011;68844;53.128;17.958;2023-09-19T12:39:50;2.40;;;0.70;;
79373;SDS011;68844;53.128;17.958;2023-09-19T12:42:23;4.90;;;0.80;;
79373;SDS011;68844;53.128;17.958;2023-09-19T12:44:51;1.40;;;0.50;;
79373;SDS011;68844;53.128;17.958;2023-09-19T12:47:23;2.20;;;0.70;;
79373;SDS011;68844;53.128;17.958;2023-09-19T12:52:40;2.40;;;0.70;;
79373;SDS011;68844;53.128;17.958;2023-09-19T13:00:33;0.90;;;0.40;;
79373;SDS011;68844;53.128;17.958;2023-09-19T13:16:05;3.50;;;0.80;;
79373;SDS011;68844;53.128;17.958;2023-09-19T13:18:45;4.40;;;0.90;;
79373;SDS011;68844;53.128;17.958;2023-09-19T13:21:30;2.20;;;0.70;;
79373;SDS011;68844;53.128;17.958;2023-09-19T13:24:19;1.60;;;0.60;;
79373;SDS011;68844;53.128;17.958;2023-09-19T13:26:46;2.30;;;0.70;;
79373;SDS011;68844;53.128;17.958;2023-09-19T13:29:12;2.10;;;0.70;;
79373;SDS011;68844;53.128;17.958;2023-09-19T13:31:40;2.10;;;0.90;;
79373;SDS011;68844;53.128;17.958;2023-09-19T13:34:08;2.10;;;0.70;;
79373;SDS011;68844;53.128;17.958;2023-09-19T13:36:34;1.30;;;0.60;;
79373;SDS011;68844;53.128;17.958;2023-09-19T13:39:01;2.10;;;1.10;;
79373;SDS011;68844;53.128;17.958;2023-09-19T13:41:28;1.60;;;0.80;;
79373;SDS011;68844;53.128;17.958;2023-09-19T13:43:55;2.20;;;0.70;;
79373;SDS011;68844;53.128;17.958;2023-09-19T13:46:23;3.10;;;1.10;;
79373;SDS011;68844;53.128;17.958;2023-09-19T13:48:52;2.40;;;0.80;;
79373;SDS011;68844;53.128;17.958;2023-09-19T13:51:22;1.40;;;0.80;;
79373;SDS011;68844;53.128;17.958;2023-09-19T13:53:49;1.60;;;0.70;;
79373;SDS011;68844;53.128;17.958;2023-09-19T13:56:17;1.40;;;0.60;;
79373;SDS011;68844;53.128;17.958;2023-09-19T13:58:43;2.40;;;0.80;;
79373;SDS011;68844;53.128;17.958;2023-09-19T14:01:10;1.90;;;0.70;;
79373;SDS011;68844;53.128;17.958;2023-09-19T14:03:39;2.00;;;1.20;;
79373;SDS011;68844;53.128;17.958;2023-09-19T14:06:06;2.00;;;0.90;;
79373;SDS011;68844;53.128;17.958;2023-09-19T14:08:33;1.60;;;0.90;;
79373;SDS011;68844;53.128;17.958;2023-09-19T14:11:05;2.70;;;1.20;;
79373;SDS011;68844;53.128;17.958;2023-09-19T14:13:40;2.50;;;1.20;;
79373;SDS011;68844;53.128;17.958;2023-09-19T14:16:07;1.60;;;0.90;;
79373;SDS011;68844;53.128;17.958;2023-09-19T14:21:04;2.20;;;1.20;;
79373;SDS011;68844;53.128;17.958;2023-09-19T14:23:34;2.30;;;1.20;;
79373;SDS011;68844;53.128;17.958;2023-09-19T14:26:04;2.00;;;1.00;;
79373;SDS011;68844;53.128;17.958;2023-09-19T14:28:32;2.40;;;1.00;;
79373;SDS011;68844;53.128;17.958;2023-09-19T14:31:08;2.30;;;1.00;;
79373;SDS011;68844;53.128;17.958;2023-09-19T14:33:36;1.90;;;1.10;;
79373;SDS011;68844;53.128;17.958;2023-09-19T14:36:05;2.10;;;1.10;;
79373;SDS011;68844;53.128;17.958;2023-09-19T14:38:33;2.70;;;1.00;;
79373;SDS011;68844;53.128;17.958;2023-09-19T14:41:00;2.60;;;1.10;;
79373;SDS011;68844;53.128;17.958;2023-09-19T14:43:28;3.60;;;1.00;;
79373;SDS011;68844;53.128;17.958;2023-09-19T14:45:56;1.70;;;0.90;;
79373;SDS011;68844;53.128;17.958;2023-09-19T14:48:23;3.30;;;0.90;;
79373;SDS011;68844;53.128;17.958;2023-09-19T14:50:52;4.20;;;1.20;;
79373;SDS011;68844;53.128;17.958;2023-09-19T14:53:19;2.60;;;1.00;;
79373;SDS011;68844;53.128;17.958;2023-09-19T14:55:46;2.40;;;1.10;;
79373;SDS011;68844;53.128;17.958;2023-09-19T14:58:14;2.00;;;1.10;;
79373;SDS011;68844;53.128;17.958;2023-09-19T15:00:40;1.40;;;0.70;;
79373;SDS011;68844;53.128;17.958;2023-09-19T15:03:07;3.40;;;1.10;;
79373;SDS011;68844;53.128;17.958;2023-09-19T15:05:34;1.80;;;1.00;;
79373;SDS011;68844;53.128;17.958;2023-09-19T15:08:01;3.10;;;1.30;;
79373;SDS011;68844;53.128;17.958;2023-09-19T15:10:29;3.10;;;1.10;;
79373;SDS011;68844;53.128;17.958;2023-09-19T15:12:57;2.20;;;0.80;;
79373;SDS011;68844;53.128;17.958;2023-09-19T15:15:24;3.20;;;1.00;;
79373;SDS011;68844;53.128;17.958;2023-09-19T15:17:50;3.60;;;1.40;;
79373;SDS011;68844;53.128;17.958;2023-09-19T15:20:17;1.10;;;0.70;;
79373;SDS011;68844;53.128;17.958;2023-09-19T15:22:44;2.30;;;1.00;;
79373;SDS011;68844;53.128;17.958;2023-09-19T15:25:12;2.40;;;1.20;;
79373;SDS011;68844;53.128;17.958;2023-09-19T15:27:39;4.10;;;1.10;;
79373;SDS011;68844;53.128;17.958;2023-09-19T15:30:08;4.80;;;1.50;;
79373;SDS011;68844;53.128;17.958;2023-09-19T15:32:35;2.10;;;1.50;;
79373;SDS011;68844;53.128;17.958;2023-09-19T15:35:01;1.90;;;1.20;;
79373;SDS011;68844;53.128;17.958;2023-09-19T15:37:28;2.10;;;0.90;;
79373;SDS011;68844;53.128;17.958;2023-09-19T15:39:55;2.90;;;1.30;;
79373;SDS011;68844;53.128;17.958;2023-09-19T15:42:21;4.00;;;1.30;;
79373;SDS011;68844;53.128;17.958;2023-09-19T15:44:48;2.90;;;1.20;;
79373;SDS011;68844;53.128;17.958;2023-09-19T15:47:17;2.50;;;1.30;;
79373;SDS011;68844;53.128;17.958;2023-09-19T15:49:43;1.60;;;1.00;;
79373;SDS011;68844;53.128;17.958;2023-09-19T15:52:11;3.80;;;1.40;;
79373;SDS011;68844;53.128;17.958;2023-09-19T15:54:38;3.30;;;1.20;;
79373;SDS011;68844;53.128;17.958;2023-09-19T15:57:09;1.90;;;1.20;;
79373;SDS011;68844;53.128;17.958;2023-09-19T15:59:39;2.10;;;1.30;;
79373;SDS011;68844;53.128;17.958;2023-09-19T16:02:06;3.00;;;1.40;;
79373;SDS011;68844;53.128;17.958;2023-09-19T16:04:32;1.50;;;1.00;;
79373;SDS011;68844;53.128;17.958;2023-09-19T16:07:00;2.80;;;1.40;;
79373;SDS011;68844;53.128;17.958;2023-09-19T16:09:28;2.00;;;1.20;;
79373;SDS011;68844;53.128;17.958;2023-09-19T16:11:54;2.40;;;1.40;;
79373;SDS011;68844;53.128;17.958;2023-09-19T16:14:21;3.90;;;1.50;;
79373;SDS011;68844;53.128;17.958;2023-09-19T16:16:48;2.50;;;1.10;;
79373;SDS011;68844;53.128;17.958;2023-09-19T16:19:16;4.40;;;1.60;;
79373;SDS011;68844;53.128;17.958;2023-09-19T16:21:42;3.50;;;1.20;;
79373;SDS011;68844;53.128;17.958;2023-09-19T16:24:10;3.40;;;1.70;;
79373;SDS011;68844;53.128;17.958;2023-09-19T16:26:37;2.20;;;1.30;;
79373;SDS011;68844;53.128;17.958;2023-09-19T16:29:04;3.30;;;1.80;;